createdAt,value
2018-11-01T00:02:27.842Z,86.70
2018-11-01T00:05:00.437Z,86.30
2018-11-01T00:07:31.978Z,85.30
2018-11-01T00:10:04.896Z,85.50
2018-11-01T00:12:40.626Z,85.10
2018-11-01T00:15:15.729Z,85.10
2018-11-01T00:17:49.861Z,85.40
2018-11-01T00:20:21.979Z,85.80
2018-11-01T00:22:57.969Z,86.80
2018-11-01T00:25:34.640Z,87.10
2018-11-01T00:28:06.765Z,87.50
2018-11-01T00:30:38.924Z,87.00
2018-11-01T00:33:12.731Z,87.20
2018-11-01T00:38:20.584Z,86.40
2018-11-01T00:40:54.307Z,86.40
2018-11-01T00:43:27.246Z,87.10
2018-11-01T00:45:59.620Z,87.10
2018-11-01T00:48:32.164Z,87.10
2018-11-01T00:51:05.595Z,86.80
2018-11-01T00:53:40.273Z,87.20
2018-11-01T00:56:12.799Z,87.60
2018-11-01T00:58:49.017Z,88.90
2018-11-01T01:01:24.035Z,89.00
2018-11-01T01:03:56.465Z,88.50
2018-11-01T01:06:30.039Z,88.20
2018-11-01T01:09:03.054Z,87.90
2018-11-01T01:14:20.259Z,87.80
2018-11-01T01:16:56.397Z,87.80
2018-11-01T01:19:30.937Z,87.40
2018-11-01T01:22:07.306Z,89.10
2018-11-01T01:24:39.289Z,88.40
2018-11-01T01:27:13.944Z,88.60
2018-11-01T01:29:47.913Z,88.20
2018-11-01T01:34:58.211Z,87.60
2018-11-01T01:37:30.951Z,88.20
2018-11-01T01:40:03.239Z,86.80
2018-11-01T01:42:39.426Z,87.30
2018-11-01T01:45:13.118Z,89.40
2018-11-01T01:47:46.500Z,90.10
2018-11-01T01:50:20.641Z,90.40
2018-11-01T01:55:30.543Z,89.90
2018-11-01T01:58:04.252Z,90.20
2018-11-01T02:00:37.871Z,90.20
2018-11-01T02:03:11.432Z,89.50
2018-11-01T02:05:44.440Z,89.70
2018-11-01T02:08:17.015Z,89.30
2018-11-01T02:10:49.207Z,89.70
2018-11-01T02:13:23.833Z,90.00
2018-11-01T02:15:56.906Z,90.70
2018-11-01T02:18:30.001Z,90.30
2018-11-01T02:21:04.378Z,90.20
2018-11-01T02:23:38.542Z,90.40
2018-11-01T02:26:12.038Z,90.40
2018-11-01T02:31:29.895Z,90.50
2018-11-01T02:34:05.480Z,90.50
2018-11-01T02:36:37.233Z,90.30
2018-11-01T02:39:17.547Z,90.60
2018-11-01T02:41:49.578Z,90.80
2018-11-01T02:44:22.691Z,91.40
2018-11-01T02:46:56.656Z,91.70
2018-11-01T02:49:29.728Z,91.50
2018-11-01T02:52:03.043Z,92.10
2018-11-01T02:54:36.848Z,91.80
2018-11-01T02:57:09.775Z,91.90
2018-11-01T02:59:42.003Z,91.90
2018-11-01T03:02:15.040Z,92.00
2018-11-01T03:04:49.394Z,91.70
2018-11-01T03:07:21.635Z,91.60
2018-11-01T03:09:53.759Z,91.60
2018-11-01T03:12:26.308Z,91.60
2018-11-01T03:14:58.226Z,91.50
2018-11-01T03:20:10.420Z,91.80
2018-11-01T03:22:43.711Z,91.70
2018-11-01T03:25:17.971Z,91.80
2018-11-01T03:27:51.940Z,91.60
2018-11-01T03:30:29.743Z,91.80
2018-11-01T03:33:02.508Z,91.80
2018-11-01T03:35:36.106Z,91.50
2018-11-01T03:38:11.120Z,91.60
2018-11-01T03:40:43.585Z,91.40
2018-11-01T03:43:17.058Z,91.40
2018-11-01T03:45:50.531Z,91.30
2018-11-01T03:48:26.943Z,91.30
2018-11-01T03:50:59.621Z,91.40
2018-11-01T03:53:33.036Z,91.50
2018-11-01T03:56:06.920Z,91.50
2018-11-01T03:58:40.761Z,91.90
2018-11-01T04:01:13.102Z,92.00
2018-11-01T04:03:46.270Z,92.00
2018-11-01T04:06:19.763Z,92.00
2018-11-01T04:11:28.637Z,91.90
2018-11-01T04:14:03.090Z,91.60
2018-11-01T04:16:34.791Z,91.50
2018-11-01T04:19:08.520Z,91.60
2018-11-01T04:21:41.932Z,91.30
2018-11-01T04:24:14.656Z,91.50
2018-11-01T04:26:47.254Z,91.60
2018-11-01T04:29:20.124Z,91.50
2018-11-01T04:31:53.179Z,91.40
2018-11-01T04:34:25.933Z,91.20
2018-11-01T04:36:58.551Z,91.40
2018-11-01T04:39:31.282Z,91.30
2018-11-01T04:42:03.836Z,91.30
2018-11-01T04:44:36.800Z,91.50
2018-11-01T04:47:09.426Z,91.90
2018-11-01T04:52:18.071Z,91.60
2018-11-01T04:54:52.088Z,91.70
2018-11-01T04:57:24.724Z,91.70
2018-11-01T05:00:00.948Z,91.90
2018-11-01T05:02:34.882Z,91.80
2018-11-01T05:05:10.181Z,91.50
2018-11-01T05:07:42.789Z,91.60
2018-11-01T05:10:15.489Z,91.80
2018-11-01T05:12:49.665Z,91.70
2018-11-01T05:15:21.539Z,91.70
2018-11-01T05:17:54.387Z,91.50
2018-11-01T05:20:38.505Z,91.70
2018-11-01T05:23:11.438Z,91.50
2018-11-01T05:25:44.187Z,91.50
2018-11-01T05:28:16.628Z,91.50
2018-11-01T05:30:50.930Z,91.40
2018-11-01T05:37:04.536Z,91.80
2018-11-01T05:39:36.789Z,91.50
2018-11-01T05:42:09.821Z,91.60
2018-11-01T05:44:41.998Z,91.60
2018-11-01T05:47:16.078Z,91.80
2018-11-01T05:49:49.003Z,91.50
2018-11-01T05:52:21.681Z,91.60
2018-11-01T05:54:57.371Z,91.40
2018-11-01T05:57:30.317Z,91.30
2018-11-01T06:00:04.658Z,91.30
2018-11-01T06:02:42.565Z,91.30
2018-11-01T06:05:15.482Z,91.30
2018-11-01T06:07:58.869Z,91.00
2018-11-01T06:10:32.632Z,91.10
2018-11-01T06:13:05.796Z,90.90
2018-11-01T06:15:44.329Z,90.90
2018-11-01T06:18:18.385Z,90.80
2018-11-01T06:20:52.075Z,90.70
2018-11-01T06:23:26.299Z,90.70
2018-11-01T06:28:36.226Z,90.30
2018-11-01T06:33:44.812Z,90.10
2018-11-01T06:36:17.555Z,89.90
2018-11-01T06:38:49.865Z,89.60
2018-11-01T06:41:22.856Z,89.10
2018-11-01T06:43:57.845Z,88.80
2018-11-01T06:46:32.206Z,88.60
2018-11-01T06:49:06.786Z,88.50
2018-11-01T06:51:40.729Z,88.20
2018-11-01T06:54:18.483Z,88.00
2018-11-01T06:56:52.251Z,87.60
2018-11-01T06:59:28.526Z,88.10
2018-11-01T07:02:04.129Z,88.00
2018-11-01T07:04:36.948Z,87.80
2018-11-01T07:07:09.200Z,87.50
2018-11-01T07:09:42.279Z,87.30
2018-11-01T07:12:15.668Z,87.10
2018-11-01T07:17:24.678Z,87.30
2018-11-01T07:19:57.660Z,87.10
2018-11-01T07:22:30.092Z,87.00
2018-11-01T07:25:02.572Z,87.10
2018-11-01T07:27:36.276Z,87.10
2018-11-01T07:30:13.056Z,87.10
2018-11-01T07:32:45.337Z,86.80
2018-11-01T07:35:18.782Z,86.80
2018-11-01T07:37:54.895Z,86.90
2018-11-01T07:40:26.347Z,86.60
2018-11-01T07:43:00.555Z,86.20
2018-11-01T07:45:33.308Z,86.00
2018-11-01T07:52:04.916Z,85.90
2018-11-01T07:54:36.639Z,85.60
2018-11-01T07:57:08.668Z,85.00
2018-11-01T07:59:40.489Z,84.40
2018-11-01T08:02:12.787Z,84.40
2018-11-01T08:04:44.503Z,83.80
2018-11-01T08:07:16.074Z,83.60
2018-11-01T08:09:47.908Z,84.00
2018-11-01T08:12:20.314Z,83.70
2018-11-01T08:14:51.997Z,83.30
2018-11-01T08:17:23.829Z,83.10
2018-11-01T08:19:56.328Z,82.80
2018-11-01T08:22:28.068Z,82.60
2018-11-01T08:24:59.788Z,82.40
2018-11-01T08:27:31.605Z,81.50
2018-11-01T08:30:03.180Z,80.40
2018-11-01T08:32:35.020Z,80.10
2018-11-01T08:35:06.801Z,79.20
2018-11-01T08:37:38.765Z,78.50
2018-11-01T08:40:11.565Z,78.70
2018-11-01T08:42:43.527Z,78.30
2018-11-01T08:45:15.898Z,77.10
2018-11-01T08:47:47.655Z,77.10
2018-11-01T08:52:55.631Z,77.10
2018-11-01T08:55:27.476Z,76.50
2018-11-01T08:57:59.704Z,76.10
2018-11-01T09:00:31.941Z,75.10
2018-11-01T09:03:03.826Z,74.80
2018-11-01T09:05:35.930Z,75.40
2018-11-01T09:08:08.309Z,74.90
2018-11-01T09:10:40.339Z,75.10
2018-11-01T09:13:12.032Z,73.50
2018-11-01T09:15:43.656Z,73.00
2018-11-01T09:18:15.368Z,73.00
2018-11-01T09:20:47.837Z,73.60
2018-11-01T09:23:19.440Z,73.20
2018-11-01T09:25:52.471Z,72.70
2018-11-01T09:28:24.197Z,72.00
2018-11-01T09:30:57.566Z,73.20
2018-11-01T09:33:30.159Z,72.10
2018-11-01T09:36:06.338Z,72.80
2018-11-01T09:38:37.965Z,72.30
2018-11-01T09:41:10.134Z,71.00
2018-11-01T09:43:42.342Z,69.50
2018-11-01T09:46:25.186Z,70.40
2018-11-01T09:48:56.772Z,70.30
2018-11-01T09:51:29.503Z,70.30
2018-11-01T09:54:01.521Z,70.00
2018-11-01T09:56:33.407Z,70.30
2018-11-01T09:59:07.036Z,69.50
2018-11-01T10:01:39.145Z,70.30
2018-11-01T10:04:11.206Z,69.80
2018-11-01T10:06:43.316Z,69.70
2018-11-01T10:09:14.825Z,68.90
2018-11-01T10:14:22.504Z,67.70
2018-11-01T10:16:54.290Z,67.70
2018-11-01T10:19:25.747Z,67.20
2018-11-01T10:21:57.200Z,66.70
2018-11-01T10:24:29.081Z,64.50
2018-11-01T10:27:00.974Z,65.60
2018-11-01T10:29:33.478Z,65.30
2018-11-01T10:32:12.820Z,65.30
2018-11-01T10:34:44.637Z,64.60
2018-11-01T10:37:16.361Z,64.20
2018-11-01T10:39:48.222Z,64.50
2018-11-01T10:42:20.326Z,64.70
2018-11-01T10:44:52.258Z,64.30
2018-11-01T10:47:23.865Z,64.90
2018-11-01T10:49:55.290Z,65.20
2018-11-01T10:52:30.556Z,64.90
2018-11-01T10:55:03.437Z,64.80
2018-11-01T10:57:35.036Z,64.60
2018-11-01T11:00:07.500Z,64.30
2018-11-01T11:02:41.347Z,64.40
2018-11-01T11:05:12.994Z,63.20
2018-11-01T11:07:44.735Z,60.50
2018-11-01T11:10:16.586Z,61.00
2018-11-01T11:12:48.339Z,59.40
2018-11-01T11:15:20.155Z,58.60
2018-11-01T11:17:52.226Z,58.00
2018-11-01T11:20:24.320Z,58.70
2018-11-01T11:22:56.382Z,57.60
2018-11-01T11:28:04.873Z,56.70
2018-11-01T11:30:38.009Z,57.30
2018-11-01T11:33:10.246Z,57.60
2018-11-01T11:35:41.985Z,57.10
2018-11-01T11:38:14.288Z,57.20
2018-11-01T11:40:46.319Z,57.10
2018-11-01T11:43:18.629Z,57.10
2018-11-01T11:45:50.518Z,56.30
2018-11-01T11:48:22.316Z,54.80
2018-11-01T11:50:54.051Z,54.00
2018-11-01T11:53:26.096Z,52.60
2018-11-01T11:55:58.477Z,51.00
2018-11-01T11:58:30.381Z,50.40
2018-11-01T12:01:01.933Z,48.90
2018-11-01T12:03:37.563Z,47.50
2018-11-01T12:06:10.067Z,46.40
2018-11-01T12:08:41.818Z,44.80
2018-11-01T12:11:13.616Z,43.10
2018-11-01T12:13:45.939Z,42.80
2018-11-01T12:16:18.335Z,42.80
2018-11-01T12:18:50.213Z,44.00
2018-11-01T12:21:22.507Z,43.60
2018-11-01T12:23:54.211Z,44.00
2018-11-01T12:26:25.958Z,45.50
2018-11-01T12:28:57.707Z,46.00
2018-11-01T12:38:59.529Z,47.40
2018-11-01T12:41:31.170Z,46.60
2018-11-01T12:44:03.490Z,45.80
2018-11-01T12:46:36.123Z,46.10
2018-11-01T12:49:08.264Z,47.20
2018-11-01T12:51:40.762Z,46.50
2018-11-01T12:54:12.673Z,47.50
2018-11-01T12:56:44.627Z,46.70
2018-11-01T12:59:19.069Z,46.90
2018-11-01T13:01:53.760Z,46.30
2018-11-01T13:07:01.844Z,46.30
2018-11-01T13:09:33.521Z,46.60
2018-11-01T13:12:05.501Z,46.40
2018-11-01T13:14:37.645Z,47.50
2018-11-01T13:17:10.122Z,48.60
2018-11-01T13:19:42.188Z,49.00
2018-11-01T13:22:14.175Z,49.40
2018-11-01T13:24:46.496Z,49.70
2018-11-01T13:27:18.310Z,50.00
2018-11-01T13:29:50.115Z,50.20
2018-11-01T13:32:22.318Z,50.30
2018-11-01T13:34:54.444Z,50.60
2018-11-01T13:37:26.183Z,50.60
2018-11-01T13:39:57.862Z,51.00
2018-11-01T13:42:29.833Z,51.30
2018-11-01T13:45:01.448Z,51.70
2018-11-01T13:47:33.207Z,51.90
2018-11-01T13:50:05.287Z,52.20
2018-11-01T13:52:36.917Z,52.50
2018-11-01T13:55:10.629Z,52.70
2018-11-01T13:57:42.577Z,53.10
2018-11-01T14:00:15.984Z,53.30
2018-11-01T14:02:48.627Z,53.80
2018-11-01T14:05:20.138Z,54.10
2018-11-01T14:07:53.290Z,54.40
2018-11-01T14:10:24.959Z,53.60
2018-11-01T14:12:57.133Z,53.70
2018-11-01T14:15:28.814Z,53.80
2018-11-01T14:20:37.098Z,54.00
2018-11-01T14:25:48.209Z,54.30
2018-11-01T14:28:19.938Z,54.40
2018-11-01T14:30:51.902Z,54.70
2018-11-01T14:33:24.606Z,55.20
2018-11-01T14:35:56.536Z,55.30
2018-11-01T14:38:28.441Z,55.20
2018-11-01T14:41:00.197Z,55.50
2018-11-01T14:43:31.745Z,55.20
2018-11-01T14:46:03.797Z,55.60
2018-11-01T14:48:35.351Z,55.90
2018-11-01T14:51:07.092Z,56.80
2018-11-01T14:53:39.388Z,57.20
2018-11-01T14:56:12.745Z,57.50
2018-11-01T14:58:45.932Z,57.40
2018-11-01T15:01:16.495Z,57.20
2018-11-01T15:03:48.654Z,57.60
2018-11-01T15:06:20.456Z,57.30
2018-11-01T15:08:52.246Z,57.20
2018-11-01T15:11:24.253Z,56.90
2018-11-01T15:13:56.022Z,57.10
2018-11-01T15:16:27.778Z,56.80
2018-11-01T15:19:02.257Z,56.80
2018-11-01T15:21:33.765Z,56.80
2018-11-01T15:24:05.670Z,56.40
2018-11-01T15:26:37.482Z,56.70
2018-11-01T15:29:09.774Z,56.40
2018-11-01T15:31:41.730Z,56.80
2018-11-01T15:34:13.479Z,57.10
2018-11-01T15:36:45.253Z,57.30
2018-11-01T15:39:17.007Z,56.90
2018-11-01T15:41:48.590Z,57.00
2018-11-01T15:44:20.246Z,57.10
2018-11-01T15:46:53.604Z,57.10
2018-11-01T15:50:32.138Z,57.70
2018-11-01T15:53:03.751Z,58.00
2018-11-01T15:55:35.919Z,59.00
2018-11-01T15:58:08.173Z,58.80
2018-11-01T16:00:39.921Z,59.70
2018-11-01T16:03:12.058Z,60.20
2018-11-01T16:05:43.976Z,60.20
2018-11-01T16:10:52.527Z,60.90
2018-11-01T16:13:24.382Z,61.50
2018-11-01T16:15:56.210Z,61.30
2018-11-01T16:18:28.135Z,61.20
2018-11-01T16:21:00.853Z,61.20
2018-11-01T16:23:33.395Z,62.00
2018-11-01T16:26:06.245Z,62.10
2018-11-01T16:28:38.434Z,62.20
2018-11-01T16:31:10.061Z,62.10
2018-11-01T16:36:17.963Z,62.80
2018-11-01T16:38:49.942Z,62.90
2018-11-01T16:41:21.706Z,62.70
2018-11-01T16:43:53.309Z,63.10
2018-11-01T16:46:24.889Z,63.30
2018-11-01T16:48:56.977Z,63.30
2018-11-01T16:51:29.247Z,63.10
2018-11-01T16:54:01.381Z,63.50
2018-11-01T16:56:33.000Z,63.90
2018-11-01T16:59:04.916Z,63.90
2018-11-01T17:01:37.536Z,64.40
2018-11-01T17:04:09.397Z,64.40
2018-11-01T17:06:41.173Z,65.20
2018-11-01T17:09:13.588Z,65.20
2018-11-01T17:11:45.541Z,65.20
2018-11-01T17:14:18.640Z,65.20
2018-11-01T17:16:50.338Z,65.10
2018-11-01T17:19:22.052Z,65.20
2018-11-01T17:21:53.804Z,65.50
2018-11-01T17:24:27.041Z,65.20
2018-11-01T17:26:58.894Z,65.60
2018-11-01T17:29:30.383Z,65.70
2018-11-01T17:32:02.366Z,65.70
2018-11-01T17:34:33.940Z,65.90
2018-11-01T17:37:06.964Z,66.10
2018-11-01T17:39:39.001Z,66.10
2018-11-01T17:42:10.701Z,66.00
2018-11-01T17:44:42.380Z,66.60
2018-11-01T17:47:14.990Z,66.30
2018-11-01T17:49:47.303Z,66.20
2018-11-01T17:52:19.654Z,66.10
2018-11-01T17:54:52.014Z,65.90
2018-11-01T17:57:24.063Z,65.70
2018-11-01T17:59:55.759Z,65.50
2018-11-01T18:02:28.190Z,65.40
2018-11-01T18:04:59.744Z,65.40
2018-11-01T18:10:09.348Z,65.50
2018-11-01T18:12:41.336Z,65.50
2018-11-01T18:15:13.761Z,65.60
2018-11-01T18:17:45.395Z,65.70
2018-11-01T18:20:17.287Z,65.50
2018-11-01T18:22:49.185Z,65.20
2018-11-01T18:25:20.960Z,65.10
2018-11-01T18:27:52.607Z,65.20
2018-11-01T18:30:24.905Z,65.50
2018-11-01T18:32:56.721Z,65.40
2018-11-01T18:35:28.393Z,66.10
2018-11-01T18:40:36.450Z,67.70
2018-11-01T18:43:08.402Z,67.30
2018-11-01T18:45:40.242Z,67.20
2018-11-01T18:48:11.929Z,66.40
2018-11-01T18:50:43.907Z,66.50
2018-11-01T18:53:17.424Z,65.90
2018-11-01T18:55:49.761Z,66.20
2018-11-01T18:58:22.043Z,65.50
2018-11-01T19:00:54.908Z,65.00
2018-11-01T19:03:29.443Z,64.60
2018-11-01T19:06:01.719Z,64.20
2018-11-01T19:08:34.184Z,64.00
2018-11-01T19:11:06.666Z,63.50
2018-11-01T19:13:38.803Z,63.10
2018-11-01T19:16:10.788Z,62.90
2018-11-01T19:18:43.385Z,62.80
2018-11-01T19:21:16.421Z,62.60
2018-11-01T19:23:48.215Z,62.50
2018-11-01T19:26:20.105Z,62.40
2018-11-01T19:28:51.619Z,62.50
2018-11-01T19:31:23.477Z,62.50
2018-11-01T19:33:56.083Z,62.50
2018-11-01T19:36:27.650Z,62.80
2018-11-01T19:38:59.722Z,62.80
2018-11-01T19:41:31.371Z,62.70
2018-11-01T19:44:02.887Z,62.50
2018-11-01T19:46:34.571Z,61.90
2018-11-01T19:49:06.515Z,61.70
2018-11-01T19:51:38.168Z,61.40
2018-11-01T19:54:09.860Z,61.50
2018-11-01T19:56:41.862Z,61.10
2018-11-01T19:59:13.716Z,61.10
2018-11-01T20:01:45.533Z,61.30
2018-11-01T20:04:17.581Z,61.20
2018-11-01T20:06:49.481Z,61.50
2018-11-01T20:09:21.692Z,61.60
2018-11-01T20:11:54.400Z,61.50
2018-11-01T20:14:26.102Z,61.50
2018-11-01T20:16:57.694Z,61.60
2018-11-01T20:19:29.591Z,61.70
2018-11-01T20:22:01.372Z,61.60
2018-11-01T20:24:36.510Z,61.70
2018-11-01T20:27:09.743Z,61.50
2018-11-01T20:29:41.330Z,61.50
2018-11-01T20:32:13.254Z,61.50
2018-11-01T20:34:45.060Z,61.70
2018-11-01T20:37:16.820Z,61.70
2018-11-01T20:39:48.589Z,61.30
2018-11-01T20:42:21.027Z,60.90
2018-11-01T20:44:52.929Z,60.60
2018-11-01T20:47:24.767Z,60.50
2018-11-01T20:49:56.715Z,60.50
2018-11-01T20:52:28.524Z,59.80
2018-11-01T20:55:01.018Z,59.80
2018-11-01T20:57:33.210Z,59.30
2018-11-01T21:00:05.126Z,59.20
2018-11-01T21:02:37.524Z,58.80
2018-11-01T21:05:09.437Z,58.50
2018-11-01T21:07:41.696Z,57.40
2018-11-01T21:10:13.412Z,57.90
2018-11-01T21:12:45.184Z,58.10
2018-11-01T21:15:17.524Z,57.70
2018-11-01T21:17:49.448Z,57.30
2018-11-01T21:20:21.253Z,57.20
2018-11-01T21:22:52.862Z,57.00
2018-11-01T21:25:24.593Z,57.20
2018-11-01T21:27:56.417Z,57.10
2018-11-01T21:30:28.783Z,57.00
2018-11-01T21:39:37.355Z,56.70
2018-11-01T21:44:45.520Z,57.00
2018-11-01T21:47:17.210Z,57.00
2018-11-01T21:49:48.981Z,56.90
2018-11-01T21:52:21.456Z,56.70
2018-11-01T21:54:54.144Z,56.50
2018-11-01T21:57:26.002Z,56.30
2018-11-01T21:59:57.663Z,56.40
2018-11-01T22:02:29.605Z,56.50
2018-11-01T22:05:01.251Z,56.30
2018-11-01T22:07:34.081Z,56.20
2018-11-01T22:10:06.335Z,57.00
2018-11-01T22:12:38.876Z,56.70
2018-11-01T22:15:12.315Z,57.00
2018-11-01T22:17:44.909Z,56.60
2018-11-01T22:20:16.847Z,56.60
2018-11-01T22:22:48.293Z,56.40
2018-11-01T22:25:21.375Z,56.20
2018-11-01T22:27:53.066Z,56.50
2018-11-01T22:30:25.365Z,56.40
2018-11-01T22:32:57.166Z,56.70
2018-11-01T22:35:28.911Z,56.40
2018-11-01T22:38:00.826Z,56.60
2018-11-01T22:40:33.441Z,57.20
2018-11-01T22:43:05.486Z,56.30
2018-11-01T22:45:37.531Z,56.00
2018-11-01T22:48:16.026Z,55.80
2018-11-01T22:50:47.870Z,55.10
2018-11-01T22:53:20.335Z,55.10
2018-11-01T22:55:52.124Z,54.70
2018-11-01T22:58:23.947Z,54.30
2018-11-01T23:00:56.067Z,53.80
2018-11-01T23:06:04.647Z,53.60
2018-11-01T23:09:08.979Z,53.40
2018-11-01T23:14:17.716Z,53.40
2018-11-01T23:16:50.242Z,52.80
2018-11-01T23:19:21.897Z,52.70
2018-11-01T23:21:54.419Z,52.00
2018-11-01T23:24:26.777Z,51.90
2018-11-01T23:26:58.874Z,52.00
2018-11-01T23:29:30.795Z,51.30
2018-11-01T23:32:02.613Z,50.90
2018-11-01T23:34:35.204Z,50.80
2018-11-01T23:37:12.446Z,51.40
2018-11-01T23:39:49.465Z,50.80
2018-11-01T23:42:26.537Z,51.00
2018-11-01T23:45:03.325Z,50.90
2018-11-01T23:47:40.077Z,50.80
2018-11-01T23:50:19.442Z,51.40
2018-11-01T23:52:53.046Z,51.80
2018-11-01T23:55:24.988Z,52.10
2018-11-01T23:57:57.139Z,52.10
